Time;durP1;ratioP1;P1;durP2;ratioP2;P2;SDS_P1;SDS_P2;PMS_P1;PMS_P2;Temp;Humidity;BMP_temperature;BMP_pressure;BME280_temperature;BME280_humidity;BME280_pressure;Samples;Min_cycle;Max_cycle;Signal;HPM_P1;HPM_P2
2023/09/09 00:00:33;;;;;;;5.30;2.63;;;17.80;78.70;;;;;;5027898;28;20030;-70
2023/09/09 00:02:59;;;;;;;5.28;2.97;;;17.80;78.70;;;;;;5022567;28;20033;-71
2023/09/09 00:05:29;;;;;;;5.45;2.80;;;17.80;79.00;;;;;;5036984;28;20022;-69
2023/09/09 00:07:54;;;;;;;5.50;2.65;;;17.90;78.80;;;;;;5030378;28;20033;-70
2023/09/09 00:10:20;;;;;;;6.35;2.88;;;17.80;78.70;;;;;;5030734;28;20084;-70
2023/09/09 00:12:45;;;;;;;4.43;2.75;;;17.80;78.70;;;;;;5009122;28;20038;-70
2023/09/09 00:15:11;;;;;;;6.32;2.70;;;17.80;78.70;;;;;;5027143;28;20389;-70
2023/09/09 00:17:36;;;;;;;4.88;3.08;;;17.80;78.90;;;;;;5024571;28;20091;-70
2023/09/09 00:20:05;;;;;;;5.65;2.75;;;17.80;78.90;;;;;;5030001;28;20033;-70
2023/09/09 00:22:30;;;;;;;7.15;3.40;;;17.80;78.70;;;;;;5034623;28;20039;-70
2023/09/09 00:24:56;;;;;;;4.57;2.88;;;17.80;78.80;;;;;;5029867;28;20033;-71
2023/09/09 00:27:21;;;;;;;5.20;3.15;;;17.70;78.80;;;;;;5028024;28;20087;-71
2023/09/09 00:29:46;;;;;;;5.65;3.22;;;17.70;79.00;;;;;;5025472;28;20036;-71
2023/09/09 00:32:12;;;;;;;5.82;3.30;;;17.70;79.10;;;;;;5029931;28;20390;-70
2023/09/09 00:34:38;;;;;;;6.78;3.38;;;17.60;79.30;;;;;;5029475;28;20033;-70
2023/09/09 00:37:03;;;;;;;7.18;3.33;;;17.60;79.20;;;;;;5028247;28;20037;-70
2023/09/09 00:39:29;;;;;;;5.80;3.60;;;17.60;79.10;;;;;;5031635;28;20032;-70
2023/09/09 00:41:55;;;;;;;8.88;3.70;;;17.60;79.40;;;;;;5027041;28;20021;-70
2023/09/09 00:44:20;;;;;;;5.70;3.40;;;17.60;79.40;;;;;;5028013;28;20075;-71
2023/09/09 00:46:46;;;;;;;9.68;3.58;;;17.50;79.60;;;;;;5030199;28;20048;-71
2023/09/09 00:49:12;;;;;;;7.15;3.78;;;17.50;79.70;;;;;;5026891;28;20510;-70
2023/09/09 00:51:37;;;;;;;6.47;3.63;;;17.50;79.90;;;;;;5027349;28;20489;-71
2023/09/09 00:54:03;;;;;;;6.80;3.47;;;17.50;79.90;;;;;;5030078;28;20124;-71
2023/09/09 00:56:32;;;;;;;6.65;3.45;;;17.50;80.00;;;;;;5027411;28;20037;-70
2023/09/09 00:58:58;;;;;;;4.82;3.25;;;17.40;80.10;;;;;;5023781;28;20033;-70
2023/09/09 01:01:23;;;;;;;6.30;3.50;;;17.50;80.20;;;;;;5005629;28;20485;-70
2023/09/09 01:03:53;;;;;;;7.38;3.72;;;17.50;80.30;;;;;;5028544;28;20029;-70
2023/09/09 01:06:20;;;;;;;7.07;3.58;;;17.40;80.40;;;;;;5027632;28;20481;-70
2023/09/09 01:08:45;;;;;;;6.85;3.40;;;17.40;80.60;;;;;;5026979;28;20049;-70
2023/09/09 01:11:11;;;;;;;4.78;3.10;;;17.40;80.50;;;;;;5022522;28;20065;-71
2023/09/09 01:13:36;;;;;;;4.45;2.70;;;17.40;80.30;;;;;;5016341;28;20390;-70
2023/09/09 01:16:02;;;;;;;3.95;2.30;;;17.40;80.40;;;;;;5023222;28;20120;-70
2023/09/09 01:18:28;;;;;;;4.03;2.28;;;17.40;80.60;;;;;;5025505;28;20056;-72
2023/09/09 01:21:01;;;;;;;3.72;2.63;;;17.40;80.90;;;;;;5027435;28;20042;-70
2023/09/09 01:23:26;;;;;;;9.38;3.00;;;17.30;80.80;;;;;;5026451;28;20564;-69
2023/09/09 01:25:52;;;;;;;5.72;2.60;;;17.30;81.10;;;;;;5027839;28;20128;-70
2023/09/09 01:28:21;;;;;;;5.88;2.75;;;17.20;81.10;;;;;;5026165;28;20477;-70
2023/09/09 01:30:48;;;;;;;4.38;2.80;;;17.20;81.20;;;;;;5025794;28;20036;-70
2023/09/09 01:33:13;;;;;;;4.80;2.85;;;17.10;81.10;;;;;;5022625;28;20501;-70
2023/09/09 01:35:39;;;;;;;4.30;2.63;;;17.10;81.50;;;;;;5029002;28;20046;-69
2023/09/09 01:38:04;;;;;;;6.75;2.95;;;17.10;81.60;;;;;;5026297;28;20397;-71
2023/09/09 01:40:30;;;;;;;4.82;2.65;;;17.10;81.60;;;;;;5023479;28;20040;-70
2023/09/09 01:42:55;;;;;;;5.72;3.10;;;17.10;81.50;;;;;;5027990;28;20041;-73
2023/09/09 01:45:21;;;;;;;5.53;3.00;;;17.10;82.00;;;;;;5023989;28;20034;-70
2023/09/09 01:47:46;;;;;;;4.82;2.83;;;17.00;81.90;;;;;;5030341;28;20037;-70
2023/09/09 01:50:12;;;;;;;5.05;2.80;;;17.00;82.10;;;;;;5032169;28;20079;-70
2023/09/09 01:52:37;;;;;;;5.82;2.90;;;17.00;82.10;;;;;;5029085;28;20075;-70
2023/09/09 01:55:03;;;;;;;5.95;3.25;;;16.90;82.50;;;;;;5022219;28;20116;-70
2023/09/09 01:57:29;;;;;;;4.82;2.78;;;16.90;82.60;;;;;;5026306;28;20478;-69
2023/09/09 01:59:56;;;;;;;4.30;2.65;;;16.80;82.80;;;;;;5026362;28;20546;-72
2023/09/09 02:02:22;;;;;;;2.90;1.90;;;16.80;83.30;;;;;;5030824;28;20051;-70
2023/09/09 02:04:47;;;;;;;6.40;3.65;;;16.70;83.00;;;;;;5029284;28;20041;-70
2023/09/09 02:07:13;;;;;;;7.90;3.30;;;16.60;83.60;;;;;;5033276;28;20420;-70
2023/09/09 02:09:38;;;;;;;5.82;3.60;;;16.50;83.80;;;;;;5026778;28;20462;-70
2023/09/09 02:12:04;;;;;;;6.47;3.58;;;16.40;84.10;;;;;;5029574;28;20505;-70
2023/09/09 02:14:31;;;;;;;5.32;3.50;;;16.40;84.10;;;;;;5027604;28;20049;-70
2023/09/09 02:16:56;;;;;;;9.15;3.90;;;16.30;84.10;;;;;;5024531;28;20401;-70
2023/09/09 02:19:22;;;;;;;6.97;3.60;;;16.30;84.40;;;;;;5037899;28;20029;-70
2023/09/09 02:21:47;;;;;;;7.55;3.90;;;16.30;84.40;;;;;;5036335;28;20051;-70
2023/09/09 02:24:13;;;;;;;6.65;3.92;;;16.30;84.20;;;;;;5028617;28;20045;-70
2023/09/09 02:26:39;;;;;;;8.00;4.13;;;16.40;84.30;;;;;;5030088;28;20044;-70
2023/09/09 02:29:04;;;;;;;5.80;3.80;;;16.40;84.40;;;;;;5025763;28;20044;-71
2023/09/09 02:31:30;;;;;;;9.25;4.03;;;16.40;84.10;;;;;;5029150;28;20033;-70
2023/09/09 02:33:55;;;;;;;6.75;3.75;;;16.40;83.90;;;;;;5026658;28;20040;-71
2023/09/09 02:36:21;;;;;;;6.13;4.00;;;16.40;83.80;;;;;;5029010;28;20474;-70
2023/09/09 02:38:46;;;;;;;6.10;4.10;;;16.40;84.00;;;;;;5031110;28;20033;-70
2023/09/09 02:41:12;;;;;;;6.82;4.25;;;16.40;84.10;;;;;;5024952;28;20470;-70
2023/09/09 02:43:37;;;;;;;7.10;4.57;;;16.40;84.20;;;;;;5028787;28;20104;-71
2023/09/09 02:46:03;;;;;;;7.50;4.22;;;16.40;84.10;;;;;;5031789;28;20041;-70
2023/09/09 02:48:29;;;;;;;9.68;3.97;;;16.30;84.10;;;;;;5011894;28;20049;-70
2023/09/09 02:50:55;;;;;;;8.27;4.10;;;16.40;84.10;;;;;;5029437;28;20061;-70
2023/09/09 02:53:21;;;;;;;7.63;4.25;;;16.40;84.30;;;;;;5030751;28;20032;-70
2023/09/09 02:55:47;;;;;;;2.35;1.80;;;16.30;84.30;;;;;;5027715;28;20030;-70
2023/09/09 02:58:14;;;;;;;3.90;2.47;;;16.30;84.60;;;;;;5023717;28;20037;-71
2023/09/09 03:00:39;;;;;;;3.42;2.13;;;16.30;84.50;;;;;;5029025;28;20032;-70
2023/09/09 03:03:05;;;;;;;3.72;2.40;;;16.20;84.90;;;;;;5025511;28;20458;-70
2023/09/09 03:05:37;;;;;;;4.95;2.75;;;16.20;85.30;;;;;;5026423;28;20028;-70
2023/09/09 03:08:03;;;;;;;4.75;3.00;;;16.20;85.40;;;;;;5029605;28;20040;-71
2023/09/09 03:10:29;;;;;;;4.03;2.95;;;16.10;85.40;;;;;;5030361;28;20064;-72
2023/09/09 03:12:56;;;;;;;5.90;2.85;;;16.10;85.60;;;;;;5024467;28;20435;-70
2023/09/09 03:15:23;;;;;;;5.35;3.13;;;16.00;85.70;;;;;;5025083;28;20123;-70
2023/09/09 03:17:48;;;;;;;6.22;3.60;;;16.00;85.70;;;;;;5020527;28;20058;-71
2023/09/09 03:20:14;;;;;;;4.90;3.08;;;16.10;85.80;;;;;;5030363;28;20030;-70
2023/09/09 03:22:40;;;;;;;5.75;3.50;;;16.00;85.70;;;;;;5032369;28;20029;-70
2023/09/09 03:25:07;;;;;;;6.97;3.70;;;16.00;86.20;;;;;;5026887;28;20030;-70
2023/09/09 03:27:32;;;;;;;6.60;3.92;;;15.90;86.10;;;;;;5027616;28;20040;-69
2023/09/09 03:29:58;;;;;;;6.25;3.65;;;15.90;86.30;;;;;;5032951;28;20041;-71
2023/09/09 03:32:25;;;;;;;5.72;3.72;;;15.90;86.20;;;;;;5020682;28;20030;-70
2023/09/09 03:34:52;;;;;;;7.55;4.00;;;15.80;86.30;;;;;;5028615;28;20037;-72
2023/09/09 03:37:18;;;;;;;6.60;3.78;;;15.80;86.10;;;;;;5029287;28;20048;-69
2023/09/09 03:39:43;;;;;;;6.72;3.70;;;15.80;86.40;;;;;;5027744;28;20385;-69
2023/09/09 03:42:09;;;;;;;6.00;3.63;;;15.80;86.30;;;;;;5023295;28;20056;-70
2023/09/09 03:44:34;;;;;;;9.50;4.40;;;15.70;86.40;;;;;;5031494;28;20043;-70
2023/09/09 03:47:00;;;;;;;7.43;4.07;;;15.80;86.50;;;;;;5032538;28;20038;-69
2023/09/09 03:49:25;;;;;;;7.63;4.25;;;15.70;86.70;;;;;;5032955;28;20064;-69
2023/09/09 03:51:51;;;;;;;5.95;3.88;;;15.70;86.70;;;;;;5030646;28;20033;-70
2023/09/09 03:54:17;;;;;;;6.55;3.45;;;15.70;86.50;;;;;;5027211;28;20117;-70
2023/09/09 03:56:42;;;;;;;6.20;3.88;;;15.60;86.70;;;;;;5026220;28;20033;-70
2023/09/09 03:59:07;;;;;;;8.93;4.05;;;15.60;86.70;;;;;;5022353;28;20040;-71
2023/09/09 04:01:36;;;;;;;6.05;4.05;;;15.60;86.60;;;;;;5023965;28;20129;-70
2023/09/09 04:04:02;;;;;;;6.72;4.25;;;15.60;86.90;;;;;;5029047;28;20033;-71
2023/09/09 04:06:28;;;;;;;6.28;3.92;;;15.60;86.80;;;;;;5027158;28;20463;-70
2023/09/09 04:08:56;;;;;;;6.10;3.97;;;15.60;86.70;;;;;;5029791;28;20021;-69
2023/09/09 04:11:22;;;;;;;9.27;4.35;;;15.60;86.80;;;;;;5026883;28;20040;-70
2023/09/09 04:13:47;;;;;;;7.75;4.00;;;15.50;86.90;;;;;;5024393;28;20045;-72
2023/09/09 04:16:13;;;;;;;7.63;4.03;;;15.50;87.20;;;;;;5030958;28;20492;-70
2023/09/09 04:18:39;;;;;;;8.00;4.75;;;15.50;87.60;;;;;;5028727;28;20041;-73
2023/09/09 04:21:04;;;;;;;6.60;4.30;;;15.40;87.50;;;;;;5032441;28;22540;-72
2023/09/09 04:23:30;;;;;;;7.07;4.20;;;15.40;87.80;;;;;;5025951;28;20029;-70
2023/09/09 04:25:55;;;;;;;6.30;4.05;;;15.30;87.70;;;;;;5024824;28;20064;-69
2023/09/09 04:28:20;;;;;;;8.93;4.68;;;15.30;87.80;;;;;;5031682;28;20104;-67
2023/09/09 04:30:46;;;;;;;6.95;4.03;;;15.30;87.70;;;;;;5028072;28;20041;-66
2023/09/09 04:33:11;;;;;;;7.45;4.50;;;15.30;87.90;;;;;;5031908;28;20424;-65
2023/09/09 04:35:39;;;;;;;6.75;4.28;;;15.20;88.10;;;;;;5028802;28;20092;-66
2023/09/09 04:38:06;;;;;;;7.78;4.18;;;15.30;88.00;;;;;;5011419;28;20099;-67
2023/09/09 04:40:31;;;;;;;6.18;4.03;;;15.20;88.00;;;;;;5018709;28;20079;-66
2023/09/09 04:42:57;;;;;;;7.65;4.53;;;15.30;88.10;;;;;;5021928;28;20026;-66
2023/09/09 04:45:23;;;;;;;7.18;4.55;;;15.30;88.40;;;;;;5026093;28;20041;-65
2023/09/09 04:47:50;;;;;;;6.60;4.38;;;15.20;88.30;;;;;;5021767;28;20041;-66
2023/09/09 04:50:15;;;;;;;7.10;4.40;;;15.30;88.30;;;;;;5030220;28;20030;-65
2023/09/09 04:52:41;;;;;;;6.90;4.22;;;15.30;88.40;;;;;;5021996;28;20037;-66
2023/09/09 04:55:07;;;;;;;7.32;4.10;;;15.20;88.10;;;;;;5035042;28;20127;-67
2023/09/09 04:57:32;;;;;;;8.50;4.15;;;15.30;88.30;;;;;;5024516;28;20041;-65
2023/09/09 04:59:58;;;;;;;7.75;4.85;;;15.20;88.20;;;;;;5036867;28;20033;-65
2023/09/09 05:02:23;;;;;;;10.20;5.15;;;15.20;88.40;;;;;;5025098;28;20061;-65
2023/09/09 05:04:49;;;;;;;6.90;4.35;;;15.20;88.40;;;;;;5030038;28;20034;-66
2023/09/09 05:07:14;;;;;;;7.30;4.60;;;15.20;88.40;;;;;;5026829;28;20032;-66
2023/09/09 05:09:40;;;;;;;8.10;4.53;;;15.30;88.50;;;;;;5030422;28;20029;-67
2023/09/09 05:12:05;;;;;;;7.43;4.25;;;15.20;88.40;;;;;;5026701;28;20099;-65
2023/09/09 05:14:31;;;;;;;7.85;4.63;;;15.30;88.30;;;;;;5024962;28;20033;-66
2023/09/09 05:16:56;;;;;;;7.28;4.25;;;15.30;88.40;;;;;;5026074;28;20064;-65
2023/09/09 05:19:22;;;;;;;7.15;4.05;;;15.30;88.40;;;;;;5028129;28;20034;-66
2023/09/09 05:21:48;;;;;;;6.80;4.35;;;15.40;88.50;;;;;;5025960;28;20022;-66
2023/09/09 05:24:14;;;;;;;8.15;3.88;;;15.40;88.60;;;;;;5028575;28;20036;-66
2023/09/09 05:26:40;;;;;;;6.68;4.80;;;15.50;88.30;;;;;;5026407;28;20037;-65
2023/09/09 05:29:05;;;;;;;6.82;4.35;;;15.60;88.00;;;;;;5032963;28;20034;-67
2023/09/09 05:31:31;;;;;;;8.15;4.75;;;15.50;87.90;;;;;;5022559;28;20032;-66
2023/09/09 05:33:56;;;;;;;8.07;4.53;;;15.60;87.70;;;;;;5023295;28;20077;-65
2023/09/09 05:36:22;;;;;;;7.97;4.63;;;15.60;87.80;;;;;;5035456;28;20048;-65
2023/09/09 05:38:47;;;;;;;6.65;4.40;;;15.60;87.80;;;;;;5030022;28;20038;-68
2023/09/09 05:41:13;;;;;;;6.22;4.32;;;15.70;87.90;;;;;;5032610;28;20068;-66
2023/09/09 05:43:39;;;;;;;8.43;4.28;;;15.70;87.70;;;;;;5027713;28;20026;-68
2023/09/09 05:46:04;;;;;;;7.57;4.72;;;15.80;87.50;;;;;;5029252;28;20036;-66
2023/09/09 05:48:30;;;;;;;6.95;4.68;;;15.90;87.30;;;;;;5033363;28;20529;-65
2023/09/09 05:50:55;;;;;;;5.93;4.13;;;16.00;87.40;;;;;;5029448;28;20033;-66
2023/09/09 05:53:21;;;;;;;7.30;4.18;;;16.00;86.80;;;;;;5026702;28;20025;-66
2023/09/09 05:55:47;;;;;;;8.45;4.22;;;16.10;86.90;;;;;;5038869;28;20048;-66
2023/09/09 05:58:12;;;;;;;6.25;4.00;;;16.10;86.80;;;;;;5031738;28;20037;-65
2023/09/09 06:00:38;;;;;;;6.00;3.85;;;16.20;86.90;;;;;;5034352;28;20053;-66
2023/09/09 06:03:03;;;;;;;8.35;3.95;;;16.30;86.50;;;;;;5027932;28;20091;-66
2023/09/09 06:05:29;;;;;;;7.28;4.13;;;16.30;86.90;;;;;;5042566;28;20040;-67
2023/09/09 06:07:56;;;;;;;7.30;4.47;;;16.50;86.30;;;;;;5028272;28;20033;-65
2023/09/09 06:10:22;;;;;;;6.07;3.80;;;16.60;85.80;;;;;;5032527;28;20034;-66
2023/09/09 06:12:48;;;;;;;8.63;3.88;;;16.70;85.60;;;;;;5033150;28;20367;-66
2023/09/09 06:15:14;;;;;;;6.70;3.70;;;16.80;85.70;;;;;;5027470;28;20037;-66
2023/09/09 06:17:41;;;;;;;6.40;3.75;;;16.90;85.70;;;;;;5025226;28;20115;-66
2023/09/09 06:20:07;;;;;;;6.00;3.60;;;16.90;86.20;;;;;;5034162;28;20029;-68
2023/09/09 06:22:34;;;;;;;6.95;3.45;;;17.00;85.70;;;;;;5033093;28;20026;-65
2023/09/09 06:24:59;;;;;;;5.30;3.40;;;17.10;85.80;;;;;;5025007;28;20021;-66
2023/09/09 06:27:25;;;;;;;6.97;3.78;;;17.20;85.50;;;;;;5036092;28;20075;-65
2023/09/09 06:29:50;;;;;;;6.35;3.67;;;17.20;86.00;;;;;;5013517;28;20029;-66
2023/09/09 06:32:16;;;;;;;6.50;3.75;;;17.30;86.20;;;;;;5029535;28;20393;-67
2023/09/09 06:34:41;;;;;;;5.63;3.53;;;17.50;85.60;;;;;;5025090;28;20037;-66
2023/09/09 06:37:07;;;;;;;6.85;3.90;;;17.50;85.30;;;;;;5023172;28;20171;-66
2023/09/09 06:39:33;;;;;;;6.72;3.80;;;17.60;85.30;;;;;;5028687;28;20461;-66
2023/09/09 06:41:58;;;;;;;9.43;4.38;;;17.70;84.80;;;;;;5023175;28;20083;-66
2023/09/09 06:44:24;;;;;;;6.80;4.10;;;17.90;84.20;;;;;;5030816;28;20484;-66
2023/09/09 06:46:49;;;;;;;8.95;4.40;;;18.00;84.20;;;;;;5027429;28;20030;-66
2023/09/09 06:49:14;;;;;;;6.55;4.53;;;18.00;84.30;;;;;;5027138;28;20041;-67
2023/09/09 06:51:40;;;;;;;7.32;4.55;;;18.20;84.10;;;;;;5028077;28;20394;-65
2023/09/09 06:54:06;;;;;;;8.27;4.18;;;18.30;84.10;;;;;;5031188;28;20079;-66
2023/09/09 06:56:31;;;;;;;7.90;4.20;;;18.40;84.10;;;;;;5026111;28;20037;-66
2023/09/09 06:58:57;;;;;;;8.43;4.22;;;18.50;84.40;;;;;;5023227;28;20040;-67
2023/09/09 07:01:22;;;;;;;7.18;3.75;;;18.50;84.60;;;;;;5026154;28;20117;-66
2023/09/09 07:03:48;;;;;;;8.65;4.45;;;18.50;84.40;;;;;;5024215;28;20029;-66
2023/09/09 07:06:13;;;;;;;8.10;3.97;;;18.50;84.40;;;;;;5031946;28;20389;-67
2023/09/09 07:08:40;;;;;;;9.20;4.03;;;18.70;83.30;;;;;;5028352;28;20034;-67
2023/09/09 07:11:06;;;;;;;8.02;3.92;;;18.90;83.40;;;;;;5032098;28;20112;-69
2023/09/09 07:13:31;;;;;;;5.88;3.70;;;18.90;83.80;;;;;;5029893;28;20121;-65
2023/09/09 07:15:57;;;;;;;7.95;4.32;;;18.90;83.60;;;;;;5037026;28;20146;-67
2023/09/09 07:18:23;;;;;;;6.45;3.75;;;19.10;82.70;;;;;;5031124;28;20111;-66
2023/09/09 07:20:48;;;;;;;5.85;3.67;;;19.30;82.40;;;;;;5031846;28;20033;-66
2023/09/09 07:23:18;;;;;;;5.07;2.50;;;19.30;82.80;;;;;;5010980;28;20033;-66
2023/09/09 07:25:44;;;;;;;3.08;2.47;;;19.40;82.30;;;;;;5021448;28;20430;-65
2023/09/09 07:28:11;;;;;;;3.83;2.75;;;19.40;82.20;;;;;;5030303;28;20087;-66
2023/09/09 07:30:37;;;;;;;3.47;2.60;;;19.50;81.70;;;;;;5023621;28;20029;-65
2023/09/09 07:33:03;;;;;;;5.53;2.63;;;19.80;81.20;;;;;;5024420;28;20037;-71
2023/09/09 07:35:29;;;;;;;5.78;2.63;;;19.90;81.40;;;;;;5031550;28;20030;-68
2023/09/09 07:37:54;;;;;;;3.88;2.72;;;19.90;81.80;;;;;;5028046;28;20029;-70
2023/09/09 07:40:20;;;;;;;3.88;2.50;;;20.00;82.00;;;;;;5024327;28;20033;-70
2023/09/09 07:42:45;;;;;;;7.82;2.78;;;20.00;81.50;;;;;;5029939;28;20463;-70
2023/09/09 07:45:11;;;;;;;4.97;2.95;;;20.10;81.10;;;;;;5028011;28;20042;-70
2023/09/09 07:47:36;;;;;;;5.07;2.78;;;20.30;81.10;;;;;;5028119;28;20371;-70
2023/09/09 07:50:02;;;;;;;3.42;2.22;;;20.60;80.00;;;;;;5002458;28;20125;-73
2023/09/09 07:52:28;;;;;;;4.82;2.80;;;20.80;80.00;;;;;;5027003;28;20029;-72
2023/09/09 07:54:53;;;;;;;3.55;1.85;;;21.00;79.10;;;;;;5025596;28;20391;-72
2023/09/09 07:57:19;;;;;;;5.35;3.15;;;21.30;78.90;;;;;;5020525;28;20107;-73
2023/09/09 07:59:44;;;;;;;7.00;2.95;;;21.30;78.70;;;;;;5023984;28;20048;-73
2023/09/09 08:02:12;;;;;;;6.72;2.97;;;21.50;77.30;;;;;;5020460;28;20458;-74
2023/09/09 08:04:38;;;;;;;4.75;2.90;;;21.60;77.50;;;;;;5011750;28;20033;-69
2023/09/09 08:07:03;;;;;;;5.20;2.80;;;21.60;77.60;;;;;;5029766;28;20025;-70
2023/09/09 08:09:29;;;;;;;4.47;2.83;;;21.80;77.60;;;;;;5023900;28;20421;-70
2023/09/09 08:11:54;;;;;;;6.45;2.78;;;22.00;76.20;;;;;;5024490;28;20060;-69
2023/09/09 08:14:20;;;;;;;4.53;2.92;;;22.10;75.80;;;;;;5026870;28;20440;-70
2023/09/09 08:16:45;;;;;;;5.53;3.03;;;22.40;76.70;;;;;;5023316;28;20041;-70
2023/09/09 08:19:11;;;;;;;6.80;2.70;;;22.70;75.40;;;;;;5027195;28;20061;-70
2023/09/09 08:21:36;;;;;;;12.02;11.20;;;22.90;75.60;;;;;;5028417;28;20033;-71
2023/09/09 08:24:02;;;;;;;1.95;1.60;;;23.10;75.00;;;;;;5026652;28;20033;-69
2023/09/09 08:26:29;;;;;;;2.33;1.80;;;23.30;73.80;;;;;;5023385;28;20036;-69
2023/09/09 08:28:54;;;;;;;2.85;1.80;;;23.50;73.40;;;;;;5024310;28;20029;-70
2023/09/09 08:31:20;;;;;;;3.60;1.80;;;23.60;72.50;;;;;;5027072;28;20041;-70
2023/09/09 08:33:46;;;;;;;3.53;1.83;;;23.90;72.30;;;;;;5025142;28;20033;-69
2023/09/09 08:36:12;;;;;;;2.70;1.80;;;24.00;72.50;;;;;;5026821;28;20428;-72
2023/09/09 08:38:37;;;;;;;2.10;1.45;;;24.30;71.80;;;;;;5025143;28;20029;-69
2023/09/09 08:41:19;;;;;;;3.33;1.95;;;24.50;74.20;;;;;;5029920;28;20462;-69
2023/09/09 08:43:56;;;;;;;3.08;1.88;;;24.60;72.80;;;;;;5026203;28;20032;-70
2023/09/09 08:46:22;;;;;;;4.15;2.53;;;24.80;69.70;;;;;;5024336;28;20109;-70
2023/09/09 08:48:50;;;;;;;3.70;2.60;;;24.90;71.60;;;;;;5025538;28;20037;-69
2023/09/09 08:51:33;;;;;;;5.88;2.83;;;25.00;70.20;;;;;;5029403;28;20527;-70
2023/09/09 08:54:00;;;;;;;6.75;2.70;;;25.10;69.90;;;;;;5026858;28;20910;-69
2023/09/09 08:56:27;;;;;;;5.28;3.05;;;25.30;70.90;;;;;;5013032;28;20033;-70
2023/09/09 08:58:52;;;;;;;4.68;2.47;;;25.30;67.90;;;;;;5021633;28;20405;-68
2023/09/09 09:01:19;;;;;;;6.25;2.70;;;25.50;68.90;;;;;;5022500;28;20037;-71
2023/09/09 09:03:45;;;;;;;5.43;2.65;;;25.50;68.50;;;;;;5034214;28;20475;-68
2023/09/09 09:06:11;;;;;;;4.60;2.78;;;25.60;68.00;;;;;;5042494;28;20068;-68
2023/09/09 09:08:36;;;;;;;6.18;5.80;;;25.80;66.80;;;;;;5025829;28;20064;-68
2023/09/09 09:11:04;;;;;;;0.47;0.47;;;25.90;66.60;;;;;;5023064;28;20025;-68
2023/09/09 09:13:33;;;;;;;0.38;0.38;;;26.00;67.10;;;;;;5030357;28;20113;-68
2023/09/09 09:16:01;;;;;;;0.30;0.30;;;26.10;65.20;;;;;;5006867;28;20459;-68
2023/09/09 09:18:27;;;;;;;0.22;0.22;;;26.30;67.00;;;;;;5022749;28;20056;-68
2023/09/09 09:20:53;;;;;;;0.22;0.22;;;26.60;66.10;;;;;;5029045;28;20026;-67
2023/09/09 09:23:19;;;;;;;1.10;0.40;;;26.70;67.00;;;;;;5030377;28;20021;-68
2023/09/09 09:25:46;;;;;;;1.35;0.40;;;26.70;66.20;;;;;;5027453;28;20022;-68
2023/09/09 09:28:13;;;;;;;4.30;4.00;;;26.80;64.00;;;;;;5020245;28;20099;-68
2023/09/09 09:30:38;;;;;;;1.20;1.10;;;26.80;64.60;;;;;;5018940;28;20025;-67
2023/09/09 09:33:04;;;;;;;1.60;1.40;;;26.90;64.10;;;;;;5015011;28;20043;-68
2023/09/09 09:35:31;;;;;;;1.15;1.00;;;27.00;64.30;;;;;;5023152;28;20052;-68
2023/09/09 09:37:58;;;;;;;1.10;1.00;;;27.10;64.40;;;;;;5026333;28;20043;-68
2023/09/09 09:40:28;;;;;;;1.42;1.20;;;27.20;63.50;;;;;;5027204;28;20402;-68
2023/09/09 09:42:55;;;;;;;0.80;0.80;;;27.30;63.20;;;;;;5031188;28;20030;-68
2023/09/09 09:45:24;;;;;;;0.80;0.80;;;27.50;63.70;;;;;;5029614;28;20057;-67
2023/09/09 09:47:50;;;;;;;1.10;0.80;;;27.70;61.00;;;;;;5029414;28;20465;-68
2023/09/09 09:50:28;;;;;;;0.95;0.82;;;27.90;63.10;;;;;;5032050;28;20061;-67
2023/09/09 09:53:08;;;;;;;2.00;1.08;;;28.00;63.50;;;;;;5035628;28;20465;-67
2023/09/09 09:55:35;;;;;;;3.20;1.95;;;27.90;61.30;;;;;;5028623;28;20461;-68
2023/09/09 09:58:05;;;;;;;3.10;2.33;;;28.00;62.80;;;;;;5027854;28;20064;-69
2023/09/09 10:00:32;;;;;;;3.75;2.47;;;28.20;61.40;;;;;;5027779;28;20543;-68
2023/09/09 10:03:00;;;;;;;4.68;2.30;;;28.30;62.00;;;;;;5021416;28;21933;-67
2023/09/09 10:05:26;;;;;;;3.17;2.10;;;28.30;59.30;;;;;;5024107;28;20072;-67
2023/09/09 10:08:02;;;;;;;4.07;2.38;;;28.00;59.70;;;;;;5034203;28;20041;-69
2023/09/09 10:10:31;;;;;;;0.75;0.75;;;28.00;60.40;;;;;;5025460;28;20037;-67
2023/09/09 10:13:17;;;;;;;2.85;1.40;;;28.10;60.10;;;;;;5028276;28;20033;-67
2023/09/09 10:15:43;;;;;;;3.92;1.27;;;28.10;59.40;;;;;;5021238;28;20107;-68
2023/09/09 10:18:11;;;;;;;3.00;1.30;;;28.20;59.30;;;;;;5006679;28;20423;-68
2023/09/09 10:20:39;;;;;;;2.35;1.60;;;28.20;59.00;;;;;;5027457;28;20189;-68
2023/09/09 10:23:05;;;;;;;2.03;1.27;;;28.30;59.30;;;;;;5026119;28;20056;-69
2023/09/09 10:25:31;;;;;;;1.60;1.35;;;28.30;58.70;;;;;;5029331;28;20104;-68
2023/09/09 10:27:57;;;;;;;1.70;1.40;;;28.50;60.30;;;;;;5030059;28;20029;-68
2023/09/09 10:30:24;;;;;;;1.95;1.58;;;28.70;59.40;;;;;;5028796;28;20505;-67
2023/09/09 10:32:50;;;;;;;1.77;1.42;;;28.90;58.10;;;;;;5030326;28;20035;-69
2023/09/09 10:35:17;;;;;;;1.20;1.00;;;29.10;58.70;;;;;;5035346;28;20033;-68
2023/09/09 10:37:44;;;;;;;1.23;1.13;;;29.00;57.60;;;;;;5014151;28;20033;-68
2023/09/09 10:40:11;;;;;;;1.80;1.23;;;29.00;58.00;;;;;;5024167;28;20041;-69
2023/09/09 10:42:39;;;;;;;0.93;0.93;;;28.90;58.00;;;;;;5030514;28;20485;-69
2023/09/09 10:45:24;;;;;;;3.72;2.10;;;29.20;57.90;;;;;;5032435;28;20489;-68
2023/09/09 10:47:57;;;;;;;2.75;1.92;;;29.40;59.60;;;;;;5025777;28;20026;-69
2023/09/09 10:50:38;;;;;;;2.70;2.00;;;29.50;58.20;;;;;;5032251;28;20053;-68
2023/09/09 10:53:16;;;;;;;4.35;2.20;;;29.50;56.90;;;;;;5037743;28;20030;-69
2023/09/09 10:55:43;;;;;;;10.30;2.58;;;29.60;55.80;;;;;;5020024;28;20496;-69
2023/09/09 10:58:09;;;;;;;3.75;2.33;;;29.80;56.20;;;;;;5029974;28;20033;-68
2023/09/09 11:00:38;;;;;;;5.05;2.80;;;29.90;56.00;;;;;;5027134;28;20582;-68
2023/09/09 11:03:10;;;;;;;5.60;3.17;;;29.80;55.40;;;;;;5028138;28;20036;-69
2023/09/09 11:06:05;;;;;;;6.93;3.08;;;30.10;54.40;;;;;;5025434;28;20182;-68
2023/09/09 11:08:46;;;;;;;5.25;3.15;;;30.30;54.50;;;;;;5030056;28;20038;-68
2023/09/09 11:11:18;;;;;;;5.30;2.92;;;30.40;54.00;;;;;;5026466;28;20174;-69
2023/09/09 11:14:02;;;;;;;4.95;2.85;;;30.50;55.40;;;;;;5032047;28;20025;-70
2023/09/09 11:16:37;;;;;;;10.00;9.02;;;31.00;54.20;;;;;;5025014;28;20025;-68
2023/09/09 11:19:08;;;;;;;5.57;3.30;;;31.00;53.50;;;;;;5027914;28;20493;-69
2023/09/09 11:21:37;;;;;;;3.47;2.70;;;30.70;52.00;;;;;;5026862;28;20040;-69
2023/09/09 11:24:03;;;;;;;4.93;2.47;;;30.60;50.50;;;;;;5028872;28;20043;-70
2023/09/09 11:26:29;;;;;;;5.25;2.90;;;30.80;53.50;;;;;;5025722;28;20037;-70
2023/09/09 11:28:55;;;;;;;2.92;2.25;;;30.90;52.40;;;;;;5025312;28;20041;-68
2023/09/09 11:31:21;;;;;;;5.07;2.55;;;31.10;50.70;;;;;;5026096;28;20034;-70
2023/09/09 11:33:47;;;;;;;4.57;2.53;;;31.30;49.50;;;;;;5023238;28;20069;-70
2023/09/09 11:36:17;;;;;;;5.10;2.70;;;31.40;48.20;;;;;;5027918;28;20120;-68
2023/09/09 11:38:43;;;;;;;4.53;2.60;;;31.50;46.10;;;;;;5029725;28;20037;-69
2023/09/09 11:41:16;;;;;;;5.13;2.63;;;31.60;46.70;;;;;;5025632;28;20047;-69
2023/09/09 11:43:41;;;;;;;4.95;2.60;;;31.60;47.40;;;;;;5022364;28;20025;-70
2023/09/09 11:46:07;;;;;;;4.07;2.67;;;31.90;49.20;;;;;;5020008;28;20044;-71
2023/09/09 11:48:32;;;;;;;5.43;2.70;;;32.50;48.60;;;;;;5029944;28;20431;-69
2023/09/09 11:50:59;;;;;;;5.65;2.95;;;32.70;48.30;;;;;;5028129;28;20091;-69
2023/09/09 11:53:25;;;;;;;4.38;3.00;;;32.60;47.10;;;;;;5025995;28;20029;-70
2023/09/09 11:55:54;;;;;;;5.95;2.80;;;32.90;47.00;;;;;;5024882;28;20624;-69
2023/09/09 11:58:20;;;;;;;5.00;2.97;;;32.70;46.60;;;;;;5027540;28;20369;-69
2023/09/09 12:00:46;;;;;;;4.75;2.95;;;33.40;46.80;;;;;;5030113;28;20034;-68
2023/09/09 12:03:19;;;;;;;3.55;2.50;;;33.30;43.30;;;;;;5024978;28;20083;-70
2023/09/09 12:05:45;;;;;;;3.58;2.20;;;33.40;43.10;;;;;;5029688;28;20083;-69
2023/09/09 12:08:10;;;;;;;2.92;2.28;;;33.90;44.00;;;;;;5028885;28;20033;-69
2023/09/09 12:10:37;;;;;;;5.32;2.60;;;33.80;43.20;;;;;;5027889;28;20037;-69
2023/09/09 12:13:04;;;;;;;3.95;2.78;;;33.70;43.20;;;;;;5025420;28;20123;-69
2023/09/09 12:15:30;;;;;;;4.70;2.53;;;33.70;42.60;;;;;;5029396;28;20385;-70
2023/09/09 12:17:55;;;;;;;4.18;2.45;;;33.50;42.70;;;;;;5028219;28;20053;-70
2023/09/09 12:20:22;;;;;;;4.38;2.65;;;33.90;43.70;;;;;;5030228;28;20025;-69
2023/09/09 12:22:48;;;;;;;5.40;2.70;;;33.70;44.10;;;;;;5025834;28;20128;-69
2023/09/09 12:25:35;;;;;;;4.43;2.42;;;33.90;42.30;;;;;;5032119;28;20112;-69
2023/09/09 12:28:02;;;;;;;4.97;2.53;;;33.80;44.10;;;;;;5024519;28;20033;-70
2023/09/09 12:30:37;;;;;;;3.72;2.42;;;33.60;42.10;;;;;;5023411;28;20041;-69
2023/09/09 12:33:12;;;;;;;6.05;2.60;;;33.40;43.80;;;;;;5007442;28;20102;-69
2023/09/09 12:35:42;;;;;;;4.60;2.30;;;34.10;43.90;;;;;;5027508;28;20476;-69
2023/09/09 12:38:08;;;;;;;3.72;2.67;;;34.60;42.40;;;;;;5029602;28;20033;-69
2023/09/09 12:41:04;;;;;;;3.58;2.22;;;34.20;42.10;;;;;;5025086;28;20109;-69
2023/09/09 12:43:30;;;;;;;4.63;2.35;;;34.50;41.50;;;;;;5012208;28;20043;-69